Flight Track Log - Related Links

Times and Time Zones

All times are in EDT time to prevent confusion due to time zone crossing. See the N610GH flight status page for this flight to view local times or setup timezone preferences in your user account.

Time Position Orientation Groundspeed Altitude Reporting Facility
EDT Latitude Longitude Course Direction KTS MPH feet Rate Location/Type
Fri 10:36:45 AM 34.0167 -84.6500 270° West 146 168 2,800  Level Atlanta TRACON
Fri 10:37:45 AM 34.0167 -84.7000 270° West 148 170 3,900 1,400 Climbing Atlanta TRACON
Fri 10:38:45 AM 34.0167 -84.7500 270° West 162 186 5,600 1,700 Climbing Atlanta TRACON
Fri 10:40:00 AM 33.9764 -84.6808 125° Southeast  Level FlightAware Approximate
Fri 10:47:00 AM 33.6948 -84.3513 160° South  Level Estimated
Fri 10:48:00 AM 33.6388 -84.3558 184° South  Level FlightAware Approximate
Fri 10:49:00 AM 33.5989 -84.3083 164° South  Level Estimated
Fri 10:50:00 AM 33.5432 -84.3154 186° South  Level FlightAware Approximate
Fri 10:51:00 AM 33.5038 -84.2674 164° South  Level Estimated
Fri 10:52:00 AM 33.4644 -84.2195 157° South  Level Estimated
Fri 10:53:00 AM 33.4250 -84.1717 163° South  Level Estimated
Fri 10:54:00 AM 33.3690 -84.1761 184° South  Level FlightAware Approximate
Fri 10:55:00 AM 33.3131 -84.1805 184° South  Level FlightAware Approximate
Fri 10:56:00 AM 33.2571 -84.1850 184° South  Level FlightAware Approximate
Fri 10:57:00 AM 33.2193 -84.1354 129° Southeast  Level Estimated
Fri 10:58:00 AM 33.1753 -84.0939 142° Southeast  Level FlightAware Approximate
Fri 10:59:00 AM 33.1312 -84.0524 142° Southeast  Level FlightAware Approximate
Fri 11:00:00 AM 33.0872 -84.0109 142° Southeast  Level FlightAware Approximate
Fri 11:01:00 AM 33.0431 -83.9695 142° Southeast  Level FlightAware Approximate
Fri 11:02:00 AM 32.9990 -83.9281 142° Southeast  Level FlightAware Approximate
Fri 11:03:00 AM 32.9549 -83.8868 142° Southeast  Level FlightAware Approximate
Fri 11:04:00 AM 32.9108 -83.8455 142° Southeast  Level FlightAware Approximate
Fri 11:05:00 AM 32.8667 -83.8042 142° Southeast  Level FlightAware Approximate
Fri 11:06:00 AM 32.8226 -83.7630 142° Southeast  Level FlightAware Approximate
Fri 11:07:00 AM 32.7784 -83.7218 142° Southeast  Level FlightAware Approximate
Fri 11:08:00 AM 32.7419 -83.6712 97° East  Level Estimated
Fri 11:09:00 AM 32.7178 -83.6110 115° Southeast  Level FlightAware Approximate
Fri 11:10:00 AM 32.6810 -83.5607 102° East  Level Estimated
Fri 11:11:00 AM 32.6697 -83.4954 102° East  Level FlightAware Approximate
Fri 11:12:00 AM 32.6584 -83.4301 102° East  Level FlightAware Approximate
Fri 11:13:00 AM 32.6470 -83.3649 102° East  Level FlightAware Approximate
Fri 11:14:00 AM 32.6356 -83.2997 102° East  Level FlightAware Approximate
Fri 11:15:00 AM 32.6242 -83.2345 102° East  Level FlightAware Approximate
Fri 11:16:00 AM 32.6127 -83.1693 102° East  Level FlightAware Approximate
Fri 11:17:00 AM 32.6012 -83.1041 102° East  Level FlightAware Approximate
Fri 11:18:00 AM 32.5896 -83.0389 102° East  Level FlightAware Approximate
Fri 11:19:00 AM 32.5781 -82.9738 102° East  Level FlightAware Approximate
Fri 11:20:00 AM 32.5361 -82.9297 140° Southeast  Level Estimated
Fri 11:21:00 AM 32.5082 -82.8720 120° Southeast  Level FlightAware Approximate
Fri 11:22:00 AM 32.4802 -82.8143 120° Southeast  Level FlightAware Approximate
Fri 11:23:00 AM 32.4375 -82.7712 141° Southeast  Level Estimated
Fri 11:24:00 AM 32.3971 -82.7251 136° Southeast  Level FlightAware Approximate
Fri 11:25:00 AM 32.3567 -82.6790 136° Southeast  Level FlightAware Approximate
Fri 11:26:00 AM 32.3163 -82.6330 136° Southeast  Level FlightAware Approximate
Fri 11:27:00 AM 32.2758 -82.5870 136° Southeast  Level FlightAware Approximate
Fri 11:28:00 AM 32.2354 -82.5411 136° Southeast  Level FlightAware Approximate
Fri 11:29:00 AM 32.1949 -82.4951 136° Southeast  Level FlightAware Approximate
Fri 11:30:00 AM 32.1544 -82.4493 136° Southeast  Level FlightAware Approximate
Fri 11:31:00 AM 32.1109 -82.4075 143° Southeast  Level Estimated
Fri 11:32:00 AM 32.0679 -82.3650 140° Southeast  Level FlightAware Approximate
Fri 11:33:00 AM 32.0248 -82.3226 140° Southeast  Level FlightAware Approximate
Fri 11:34:00 AM 31.9817 -82.2802 140° Southeast  Level FlightAware Approximate
Fri 11:35:00 AM 31.9381 -82.2387 143° Southeast  Level Estimated
Fri 11:36:00 AM 31.8939 -82.1979 142° Southeast  Level FlightAware Approximate
Fri 11:37:00 AM 31.8498 -82.1572 142° Southeast  Level FlightAware Approximate
Fri 11:38:00 AM 31.8056 -82.1165 142° Southeast  Level FlightAware Approximate
Fri 11:39:00 AM 31.7620 -82.0750 128° Southeast  Level Estimated
Fri 11:40:00 AM 31.7184 -82.0336 140° Southeast  Level Estimated
Fri 11:41:00 AM 31.6755 -81.9910 140° Southeast  Level FlightAware Approximate
Fri 11:42:00 AM 31.6326 -81.9486 140° Southeast  Level FlightAware Approximate
Fri 11:43:00 AM 31.5888 -81.9074 139° Southeast  Level Estimated
Fri 11:44:00 AM 31.5463 -81.8644 139° Southeast  Level FlightAware Approximate
Fri 11:45:00 AM 31.5038 -81.8214 139° Southeast  Level FlightAware Approximate
Fri 11:46:00 AM 31.4613 -81.7785 139° Southeast  Level FlightAware Approximate
Fri 11:47:00 AM 31.4170 -81.7382 144° Southeast  Level Estimated
Fri 11:48:00 AM 31.3727 -81.6979 142° Southeast  Level FlightAware Approximate
Fri 11:49:00 AM 31.3284 -81.6576 139° Southeast  Level Estimated
Fri 11:50:00 AM 31.2841 -81.6173 128° Southeast  Level Estimated
Fri 11:51:00 AM 31.2397 -81.5772 147° Southeast  Level Estimated
Fri 11:52:00 AM 31.1950 -81.5377 143° Southeast  Level FlightAware Approximate
Fri 11:53:00 AM 31.1508 -81.4973 139° Southeast  Level Estimated
Fri 11:54:00 AM 31.1065 -81.4570 139° Southeast  Level Estimated
Fri 11:55:00 AM 31.0745 -81.4278 139° Southeast  Level Estimated
Fri 11:56:00 AM 31.0745 -81.4278 139° Southeast  Level Estimated
Fri 11:57:00 AM 31.0745 -81.4278 139° Southeast  Level Estimated
Fri 11:58:00 AM 31.0745 -81.4278 139° Southeast  Level Estimated
Fri 11:59:00 AM 31.0745 -81.4278 139° Southeast  Level Estimated
Fri 12:00:00 PM 31.0745 -81.4278 139° Southeast  Level Estimated
Fri 12:01:00 PM 31.0745 -81.4278 139° Southeast  Level Estimated
Fri 12:02:00 PM 31.0745 -81.4278 139° Southeast  Level Estimated
Fri 12:03:00 PM 31.0745 -81.4278 139° Southeast  Level Estimated
Fri 12:04:00 PM 31.0745 -81.4278 139° Southeast  Level Estimated
Fri 12:05:00 PM 31.0745 -81.4278 139° Southeast  Level Estimated
Fri 12:06:00 PM 31.0745 -81.4278 139° Southeast  Level Estimated
Fri 12:07:00 PM 31.0745 -81.4278 139° Southeast  Level Estimated

Login

Don't have an account? Register now (free) for customized features, flight alerts, and more!